sensor_id;sensor_type;location;lat;lon;timestamp;pressure;altitude;pressure_sealevel;temperature;humidity
80116;BME280;69423;47.608;19.366;2023-08-08T00:00:13;98897.38;;;13.27;81.18
80116;BME280;69423;47.608;19.366;2023-08-08T00:00:44;98895.09;;;13.24;82.33
80116;BME280;69423;47.608;19.366;2023-08-08T00:01:15;98894.72;;;13.27;81.72
80116;BME280;69423;47.608;19.366;2023-08-08T00:01:46;98894.13;;;13.32;81.10
80116;BME280;69423;47.608;19.366;2023-08-08T00:02:17;98892.28;;;13.32;81.82
80116;BME280;69423;47.608;19.366;2023-08-08T00:02:48;98907.53;;;13.32;81.68
80116;BME280;69423;47.608;19.366;2023-08-08T00:03:20;98897.63;;;13.32;81.66
80116;BME280;69423;47.608;19.366;2023-08-08T00:03:51;98900.88;;;13.28;81.90
80116;BME280;69423;47.608;19.366;2023-08-08T00:04:22;98902.16;;;13.32;81.37
80116;BME280;69423;47.608;19.366;2023-08-08T00:04:53;98900.94;;;13.34;81.11
80116;BME280;69423;47.608;19.366;2023-08-08T00:05:24;98897.22;;;13.35;82.22
80116;BME280;69423;47.608;19.366;2023-08-08T00:05:55;98907.94;;;13.35;82.01
80116;BME280;69423;47.608;19.366;2023-08-08T00:06:26;98897.22;;;13.35;81.33
80116;BME280;69423;47.608;19.366;2023-08-08T00:06:57;98899.47;;;13.32;81.62
80116;BME280;69423;47.608;19.366;2023-08-08T00:07:28;98897.63;;;13.32;81.11
80116;BME280;69423;47.608;19.366;2023-08-08T00:08:02;98906.47;;;13.33;81.89
80116;BME280;69423;47.608;19.366;2023-08-08T00:08:34;98905.47;;;13.34;81.43
80116;BME280;69423;47.608;19.366;2023-08-08T00:09:05;98902.97;;;13.32;81.30
80116;BME280;69423;47.608;19.366;2023-08-08T00:09:36;98905.47;;;13.34;81.92
80116;BME280;69423;47.608;19.366;2023-08-08T00:10:08;98903.41;;;13.36;81.14
80116;BME280;69423;47.608;19.366;2023-08-08T00:10:39;98897.84;;;13.38;81.65
80116;BME280;69423;47.608;19.366;2023-08-08T00:11:10;98903.59;;;13.34;81.65
80116;BME280;69423;47.608;19.366;2023-08-08T00:11:41;98897.22;;;13.35;81.64
80116;BME280;69423;47.608;19.366;2023-08-08T00:12:12;98892.69;;;13.36;81.12
80116;BME280;69423;47.608;19.366;2023-08-08T00:12:43;98898.69;;;13.38;81.08
80116;BME280;69423;47.608;19.366;2023-08-08T00:13:14;98898.44;;;13.33;81.62
80116;BME280;69423;47.608;19.366;2023-08-08T00:13:45;98893.88;;;13.27;81.94
80116;BME280;69423;47.608;19.366;2023-08-08T00:14:17;98897.78;;;13.24;81.79
80116;BME280;69423;47.608;19.366;2023-08-08T00:14:48;98899.22;;;13.27;81.03
80116;BME280;69423;47.608;19.366;2023-08-08T00:15:19;98904.22;;;13.30;82.25
80116;BME280;69423;47.608;19.366;2023-08-08T00:15:50;98901.69;;;13.28;81.87
80116;BME280;69423;47.608;19.366;2023-08-08T00:16:21;98895.91;;;13.25;82.10
80116;BME280;69423;47.608;19.366;2023-08-08T00:16:52;98902.06;;;13.19;81.69
80116;BME280;69423;47.608;19.366;2023-08-08T00:17:24;98906.22;;;13.21;81.58
80116;BME280;69423;47.608;19.366;2023-08-08T00:17:54;98903.31;;;13.23;81.58
80116;BME280;69423;47.608;19.366;2023-08-08T00:18:26;98894.66;;;13.21;81.54
80116;BME280;69423;47.608;19.366;2023-08-08T00:18:57;98899.00;;;13.22;81.53
80116;BME280;69423;47.608;19.366;2023-08-08T00:19:28;98890.75;;;13.16;82.22
80116;BME280;69423;47.608;19.366;2023-08-08T00:19:59;98902.69;;;13.14;81.78
80116;BME280;69423;47.608;19.366;2023-08-08T00:20:30;98898.38;;;13.13;81.77
80116;BME280;69423;47.608;19.366;2023-08-08T00:21:01;98904.97;;;13.10;81.75
80116;BME280;69423;47.608;19.366;2023-08-08T00:21:32;98909.91;;;13.13;82.37
80116;BME280;69423;47.608;19.366;2023-08-08T00:22:03;98910.34;;;13.17;82.56
80116;BME280;69423;47.608;19.366;2023-08-08T00:22:34;98908.28;;;13.19;81.59
80116;BME280;69423;47.608;19.366;2023-08-08T00:23:05;98902.06;;;13.19;82.16
80116;BME280;69423;47.608;19.366;2023-08-08T00:23:36;98909.72;;;13.15;82.13
80116;BME280;69423;47.608;19.366;2023-08-08T00:24:07;98911.75;;;13.13;82.49
80116;BME280;69423;47.608;19.366;2023-08-08T00:24:38;98914.22;;;13.14;81.79
80116;BME280;69423;47.608;19.366;2023-08-08T00:25:09;98913.00;;;13.10;82.62
80116;BME280;69423;47.608;19.366;2023-08-08T00:25:40;98912.16;;;13.16;82.51
80116;BME280;69423;47.608;19.366;2023-08-08T00:26:12;98912.78;;;13.19;81.95
80116;BME280;69423;47.608;19.366;2023-08-08T00:26:43;98917.75;;;13.22;81.51
80116;BME280;69423;47.608;19.366;2023-08-08T00:27:14;98910.53;;;13.22;81.95
80116;BME280;69423;47.608;19.366;2023-08-08T00:27:45;98916.53;;;13.24;82.24
80116;BME280;69423;47.608;19.366;2023-08-08T00:28:16;98917.75;;;13.22;81.84
80116;BME280;69423;47.608;19.366;2023-08-08T00:28:47;98911.16;;;13.24;82.01
80116;BME280;69423;47.608;19.366;2023-08-08T00:29:18;98913.63;;;13.19;82.15
80116;BME280;69423;47.608;19.366;2023-08-08T00:29:49;98916.09;;;13.21;81.91
80116;BME280;69423;47.608;19.366;2023-08-08T00:30:21;98919.81;;;13.20;81.96
80116;BME280;69423;47.608;19.366;2023-08-08T00:30:52;98920.81;;;13.19;81.61
80116;BME280;69423;47.608;19.366;2023-08-08T00:31:23;98913.19;;;13.15;81.68
80116;BME280;69423;47.608;19.366;2023-08-08T00:31:54;98912.56;;;13.13;82.31
80116;BME280;69423;47.608;19.366;2023-08-08T00:32:26;98915.47;;;13.19;81.59
80116;BME280;69423;47.608;19.366;2023-08-08T00:32:57;98919.19;;;13.18;82.18
80116;BME280;69423;47.608;19.366;2023-08-08T00:33:28;98915.88;;;13.15;82.18
80116;BME280;69423;47.608;19.366;2023-08-08T00:33:59;98917.13;;;13.20;81.59
80116;BME280;69423;47.608;19.366;2023-08-08T00:34:30;98921.22;;;13.15;81.82
80116;BME280;69423;47.608;19.366;2023-08-08T00:35:01;98915.88;;;13.15;81.33
80116;BME280;69423;47.608;19.366;2023-08-08T00:35:32;98919.56;;;13.14;81.54
80116;BME280;69423;47.608;19.366;2023-08-08T00:36:03;98916.28;;;13.12;81.62
80116;BME280;69423;47.608;19.366;2023-08-08T00:36:34;98917.75;;;13.15;81.16
80116;BME280;69423;47.608;19.366;2023-08-08T00:37:05;98920.19;;;13.16;81.58
80116;BME280;69423;47.608;19.366;2023-08-08T00:37:36;98913.63;;;13.19;81.23
80116;BME280;69423;47.608;19.366;2023-08-08T00:38:07;98919.38;;;13.23;81.84
80116;BME280;69423;47.608;19.366;2023-08-08T00:38:38;98918.56;;;13.22;81.04
80116;BME280;69423;47.608;19.366;2023-08-08T00:39:09;98916.09;;;13.21;81.58
80116;BME280;69423;47.608;19.366;2023-08-08T00:39:40;98922.66;;;13.11;81.33
80116;BME280;69423;47.608;19.366;2023-08-08T00:40:16;98914.00;;;13.09;81.39
80116;BME280;69423;47.608;19.366;2023-08-08T00:40:47;98921.22;;;13.09;81.64
80116;BME280;69423;47.608;19.366;2023-08-08T00:41:18;98915.25;;;13.13;81.82
80116;BME280;69423;47.608;19.366;2023-08-08T00:41:49;98918.38;;;13.17;81.57
80116;BME280;69423;47.608;19.366;2023-08-08T00:42:20;98923.31;;;13.20;81.79
80116;BME280;69423;47.608;19.366;2023-08-08T00:42:52;98918.13;;;13.19;81.79
80116;BME280;69423;47.608;19.366;2023-08-08T00:43:23;98912.41;;;13.22;81.20
80116;BME280;69423;47.608;19.366;2023-08-08T00:43:54;98914.44;;;13.20;81.20
80116;BME280;69423;47.608;19.366;2023-08-08T00:44:25;98919.81;;;13.20;81.42
80116;BME280;69423;47.608;19.366;2023-08-08T00:44:56;98920.81;;;13.19;81.33
80116;BME280;69423;47.608;19.366;2023-08-08T00:45:32;98912.59;;;13.20;81.04
80116;BME280;69423;47.608;19.366;2023-08-08T00:46:03;98913.84;;;13.24;80.73
80116;BME280;69423;47.608;19.366;2023-08-08T00:46:34;98924.13;;;13.21;80.49
80116;BME280;69423;47.608;19.366;2023-08-08T00:47:09;98924.81;;;13.29;80.58
80116;BME280;69423;47.608;19.366;2023-08-08T00:47:41;98916.09;;;13.21;81.30
80116;BME280;69423;47.608;19.366;2023-08-08T00:48:13;98916.53;;;13.24;80.91
80116;BME280;69423;47.608;19.366;2023-08-08T00:48:44;98919.00;;;13.26;81.01
80116;BME280;69423;47.608;19.366;2023-08-08T00:49:15;98916.94;;;13.28;80.34
80116;BME280;69423;47.608;19.366;2023-08-08T00:49:46;98916.09;;;13.21;81.24
80116;BME280;69423;47.608;19.366;2023-08-08T00:50:20;98914.66;;;13.25;80.41
80116;BME280;69423;47.608;19.366;2023-08-08T00:50:52;98915.09;;;13.28;80.33
80116;BME280;69423;47.608;19.366;2023-08-08T00:51:24;98914.03;;;13.23;80.16
80116;BME280;69423;47.608;19.366;2023-08-08T00:51:55;98919.00;;;13.26;80.87
80116;BME280;69423;47.608;19.366;2023-08-08T00:52:27;98909.94;;;13.27;81.25
80116;BME280;69423;47.608;19.366;2023-08-08T00:52:58;98911.22;;;13.31;80.84
80116;BME280;69423;47.608;19.366;2023-08-08T00:53:30;98910.38;;;13.30;80.65
80116;BME280;69423;47.608;19.366;2023-08-08T00:54:02;98921.91;;;13.31;80.13
80116;BME280;69423;47.608;19.366;2023-08-08T00:54:34;98918.22;;;13.32;79.88
80116;BME280;69423;47.608;19.366;2023-08-08T00:55:05;98915.94;;;13.29;80.39
80116;BME280;69423;47.608;19.366;2023-08-08T00:55:37;98917.19;;;13.33;80.13
80116;BME280;69423;47.608;19.366;2023-08-08T00:56:08;98916.56;;;13.31;80.09
80116;BME280;69423;47.608;19.366;2023-08-08T00:56:40;98923.59;;;13.32;79.92
80116;BME280;69423;47.608;19.366;2023-08-08T00:57:12;98919.47;;;13.29;80.85
80116;BME280;69423;47.608;19.366;2023-08-08T00:57:43;98910.38;;;13.30;80.20
80116;BME280;69423;47.608;19.366;2023-08-08T00:58:15;98920.09;;;13.31;80.90
80116;BME280;69423;47.608;19.366;2023-08-08T00:58:47;98909.56;;;13.30;80.49
80116;BME280;69423;47.608;19.366;2023-08-08T00:59:21;98917.97;;;13.27;80.58
80116;BME280;69423;47.608;19.366;2023-08-08T00:59:53;98923.31;;;13.27;80.52
80116;BME280;69423;47.608;19.366;2023-08-08T01:00:24;98926.47;;;13.30;80.39
80116;BME280;69423;47.608;19.366;2023-08-08T01:00:55;98914.94;;;13.30;80.35
80116;BME280;69423;47.608;19.366;2023-08-08T01:01:30;98915.34;;;13.33;80.26
80116;BME280;69423;47.608;19.366;2023-08-08T01:02:02;98921.28;;;13.29;80.61
80116;BME280;69423;47.608;19.366;2023-08-08T01:02:33;98925.63;;;13.30;80.06
80116;BME280;69423;47.608;19.366;2023-08-08T01:03:04;98924.97;;;13.21;80.70
80116;BME280;69423;47.608;19.366;2023-08-08T01:03:35;98916.53;;;13.24;81.15
80116;BME280;69423;47.608;19.366;2023-08-08T01:04:06;98911.59;;;13.21;80.65
80116;BME280;69423;47.608;19.366;2023-08-08T01:04:38;98915.06;;;13.22;80.32
80116;BME280;69423;47.608;19.366;2023-08-08T01:05:11;98922.69;;;13.25;81.24
80116;BME280;69423;47.608;19.366;2023-08-08T01:05:49;98920.22;;;13.23;80.83
80116;BME280;69423;47.608;19.366;2023-08-08T01:06:39;98923.31;;;13.20;80.76
80116;BME280;69423;47.608;19.366;2023-08-08T01:08:07;98914.66;;;13.25;80.71
80116;BME280;69423;47.608;19.366;2023-08-08T01:09:04;98918.38;;;13.24;80.22
80116;BME280;69423;47.608;19.366;2023-08-08T01:09:50;98918.38;;;13.24;81.13
80116;BME280;69423;47.608;19.366;2023-08-08T01:10:31;98919.38;;;13.23;80.34
80116;BME280;69423;47.608;19.366;2023-08-08T01:11:04;98920.44;;;13.28;80.50
80116;BME280;69423;47.608;19.366;2023-08-08T01:11:36;98915.75;;;13.30;80.61
80116;BME280;69423;47.608;19.366;2023-08-08T01:12:11;98905.03;;;13.37;81.14
80116;BME280;69423;47.608;19.366;2023-08-08T01:12:50;98916.19;;;13.34;80.07
80116;BME280;69423;47.608;19.366;2023-08-08T01:13:25;98910.81;;;13.34;80.52
80116;BME280;69423;47.608;19.366;2023-08-08T01:13:59;98912.88;;;13.32;80.25
80116;BME280;69423;47.608;19.366;2023-08-08T01:14:32;98911.00;;;13.32;80.14
80116;BME280;69423;47.608;19.366;2023-08-08T01:15:07;98915.34;;;13.33;80.81
80116;BME280;69423;47.608;19.366;2023-08-08T01:15:39;98910.00;;;13.33;80.80
80116;BME280;69423;47.608;19.366;2023-08-08T01:16:12;98910.00;;;13.33;80.71
80116;BME280;69423;47.608;19.366;2023-08-08T01:16:44;98909.56;;;13.30;80.53
80116;BME280;69423;47.608;19.366;2023-08-08T01:17:16;98908.34;;;13.32;80.35
80116;BME280;69423;47.608;19.366;2023-08-08T01:17:48;98914.31;;;13.34;80.83
80116;BME280;69423;47.608;19.366;2023-08-08T01:18:19;98907.31;;;13.33;80.02
80116;BME280;69423;47.608;19.366;2023-08-08T01:18:50;98916.78;;;13.29;80.73
80116;BME280;69423;47.608;19.366;2023-08-08T01:19:28;98913.69;;;13.32;79.93
80116;BME280;69423;47.608;19.366;2023-08-08T01:20:00;98913.06;;;13.37;80.56
80116;BME280;69423;47.608;19.366;2023-08-08T01:20:32;98909.59;;;13.36;80.30
80116;BME280;69423;47.608;19.366;2023-08-08T01:21:05;98899.69;;;13.30;79.62
80116;BME280;69423;47.608;19.366;2023-08-08T01:21:38;98915.13;;;13.35;79.96
80116;BME280;69423;47.608;19.366;2023-08-08T01:22:23;98902.59;;;13.35;80.88
80116;BME280;69423;47.608;19.366;2023-08-08T01:23:52;98914.13;;;13.36;80.41
80116;BME280;69423;47.608;19.366;2023-08-08T01:24:24;98907.94;;;13.35;79.85
80116;BME280;69423;47.608;19.366;2023-08-08T01:25:01;98903.81;;;13.33;80.14
80116;BME280;69423;47.608;19.366;2023-08-08T01:25:33;98919.81;;;13.26;80.61
80116;BME280;69423;47.608;19.366;2023-08-08T01:26:05;98923.13;;;13.28;79.96
80116;BME280;69423;47.608;19.366;2023-08-08T01:26:37;98896.19;;;13.30;80.84
80116;BME280;69423;47.608;19.366;2023-08-08T01:27:08;98904.56;;;13.27;80.87
80116;BME280;69423;47.608;19.366;2023-08-08T01:27:39;98897.78;;;13.24;80.90
80116;BME280;69423;47.608;19.366;2023-08-08T01:28:10;98907.25;;;13.27;80.46
80116;BME280;69423;47.608;19.366;2023-08-08T01:28:42;98907.91;;;13.29;80.09
80116;BME280;69423;47.608;19.366;2023-08-08T01:29:14;98916.94;;;13.28;80.96
80116;BME280;69423;47.608;19.366;2023-08-08T01:29:45;98905.84;;;13.31;80.05
80116;BME280;69423;47.608;19.366;2023-08-08T01:30:16;98905.41;;;13.27;81.03
80116;BME280;69423;47.608;19.366;2023-08-08T01:30:48;98905.63;;;13.26;80.56
80116;BME280;69423;47.608;19.366;2023-08-08T01:31:19;98910.78;;;13.27;80.55
80116;BME280;69423;47.608;19.366;2023-08-08T01:31:50;98905.63;;;13.26;81.03
80116;BME280;69423;47.608;19.366;2023-08-08T01:32:21;98907.25;;;13.27;80.88
80116;BME280;69423;47.608;19.366;2023-08-08T01:32:52;98914.47;;;13.26;81.23
80116;BME280;69423;47.608;19.366;2023-08-08T01:33:23;98903.75;;;13.26;80.54
80116;BME280;69423;47.608;19.366;2023-08-08T01:33:54;98915.34;;;13.33;80.61
80116;BME280;69423;47.608;19.366;2023-08-08T01:34:25;98901.50;;;13.23;81.11
80116;BME280;69423;47.608;19.366;2023-08-08T01:34:56;98915.69;;;13.24;80.23
80116;BME280;69423;47.608;19.366;2023-08-08T01:35:31;98904.56;;;13.27;80.68
80116;BME280;69423;47.608;19.366;2023-08-08T01:36:13;98903.31;;;13.23;80.65
80116;BME280;69423;47.608;19.366;2023-08-08T01:36:55;98906.06;;;13.29;80.74
80116;BME280;69423;47.608;19.366;2023-08-08T01:37:36;98905.84;;;13.31;80.12
80116;BME280;69423;47.608;19.366;2023-08-08T01:38:25;98902.31;;;13.24;80.71
80116;BME280;69423;47.608;19.366;2023-08-08T01:39:01;98908.06;;;13.21;81.15
80116;BME280;69423;47.608;19.366;2023-08-08T01:39:38;98901.50;;;13.23;81.11
80116;BME280;69423;47.608;19.366;2023-08-08T01:40:13;98904.56;;;13.20;80.87
80116;BME280;69423;47.608;19.366;2023-08-08T01:40:47;98911.59;;;13.21;81.22
80116;BME280;69423;47.608;19.366;2023-08-08T01:41:18;98910.34;;;13.24;80.61
80116;BME280;69423;47.608;19.366;2023-08-08T01:41:53;98899.41;;;13.19;80.41
80116;BME280;69423;47.608;19.366;2023-08-08T01:42:25;98909.09;;;13.20;81.41
80116;BME280;69423;47.608;19.366;2023-08-08T01:42:58;98907.03;;;13.22;80.80
80116;BME280;69423;47.608;19.366;2023-08-08T01:43:30;98909.09;;;13.20;80.77
80116;BME280;69423;47.608;19.366;2023-08-08T01:44:01;98907.66;;;13.17;81.25
80116;BME280;69423;47.608;19.366;2023-08-08T01:44:33;98906.19;;;13.14;80.45
80116;BME280;69423;47.608;19.366;2023-08-08T01:45:06;98902.31;;;13.17;81.17
80116;BME280;69423;47.608;19.366;2023-08-08T01:45:39;98904.75;;;13.19;80.76
80116;BME280;69423;47.608;19.366;2023-08-08T01:46:10;98915.28;;;13.20;80.99
80116;BME280;69423;47.608;19.366;2023-08-08T01:46:42;98903.31;;;13.23;81.30
80116;BME280;69423;47.608;19.366;2023-08-08T01:47:13;98915.06;;;13.22;81.06
80116;BME280;69423;47.608;19.366;2023-08-08T01:47:50;98914.84;;;13.16;80.46
80116;BME280;69423;47.608;19.366;2023-08-08T01:48:21;98906.19;;;13.14;80.65
80116;BME280;69423;47.608;19.366;2023-08-08T01:48:52;98906.19;;;13.14;80.70
80116;BME280;69423;47.608;19.366;2023-08-08T01:49:23;98919.38;;;13.16;80.37
80116;BME280;69423;47.608;19.366;2023-08-08T01:49:54;98912.38;;;13.15;80.15
80116;BME280;69423;47.608;19.366;2023-08-08T01:50:25;98914.22;;;13.14;80.83
80116;BME280;69423;47.608;19.366;2023-08-08T01:50:56;98908.84;;;13.14;80.93
80116;BME280;69423;47.608;19.366;2023-08-08T01:51:27;98909.47;;;13.16;81.21
80116;BME280;69423;47.608;19.366;2023-08-08T01:51:59;98914.84;;;13.16;80.68
80116;BME280;69423;47.608;19.366;2023-08-08T01:52:30;98907.66;;;13.17;81.03
80116;BME280;69423;47.608;19.366;2023-08-08T01:53:01;98907.66;;;13.17;81.15
80116;BME280;69423;47.608;19.366;2023-08-08T01:53:32;98911.53;;;13.14;81.18
80116;BME280;69423;47.608;19.366;2023-08-08T01:54:03;98910.69;;;13.07;81.31
80116;BME280;69423;47.608;19.366;2023-08-08T01:54:35;98914.63;;;13.11;81.02
80116;BME280;69423;47.608;19.366;2023-08-08T01:55:06;98915.88;;;13.15;80.74
80116;BME280;69423;47.608;19.366;2023-08-08T01:55:37;98919.56;;;13.14;80.78
80116;BME280;69423;47.608;19.366;2023-08-08T01:56:08;98923.50;;;13.19;80.80
80116;BME280;69423;47.608;19.366;2023-08-08T01:56:39;98923.50;;;13.19;81.16
80116;BME280;69423;47.608;19.366;2023-08-08T01:57:10;98925.16;;;13.20;80.33
80116;BME280;69423;47.608;19.366;2023-08-08T01:57:41;98922.69;;;13.18;80.50
80116;BME280;69423;47.608;19.366;2023-08-08T01:58:12;98923.72;;;13.17;80.58
80116;BME280;69423;47.608;19.366;2023-08-08T01:58:43;98919.38;;;13.16;80.67
80116;BME280;69423;47.608;19.366;2023-08-08T01:59:14;98922.88;;;13.16;80.46
80116;BME280;69423;47.608;19.366;2023-08-08T01:59:46;98929.69;;;13.19;80.68
80116;BME280;69423;47.608;19.366;2023-08-08T02:00:17;98929.88;;;13.18;80.93
80116;BME280;69423;47.608;19.366;2023-08-08T02:00:48;98929.25;;;13.15;80.96
80116;BME280;69423;47.608;19.366;2023-08-08T02:01:20;98928.44;;;13.15;80.42
80116;BME280;69423;47.608;19.366;2023-08-08T02:01:51;98924.09;;;13.14;81.10
80116;BME280;69423;47.608;19.366;2023-08-08T02:02:22;98932.94;;;13.14;81.52
80116;BME280;69423;47.608;19.366;2023-08-08T02:02:53;98923.91;;;13.15;81.29
80116;BME280;69423;47.608;19.366;2023-08-08T02:03:24;98925.53;;;13.16;80.84
80116;BME280;69423;47.608;19.366;2023-08-08T02:03:55;98931.34;;;13.20;80.88
80116;BME280;69423;47.608;19.366;2023-08-08T02:04:27;98933.19;;;13.20;81.33
80116;BME280;69423;47.608;19.366;2023-08-08T02:04:58;98934.19;;;13.19;80.83
80116;BME280;69423;47.608;19.366;2023-08-08T02:05:29;98931.94;;;13.15;80.81
80116;BME280;69423;47.608;19.366;2023-08-08T02:06:00;98930.91;;;13.16;80.69
80116;BME280;69423;47.608;19.366;2023-08-08T02:06:31;98929.88;;;13.18;80.64
80116;BME280;69423;47.608;19.366;2023-08-08T02:07:02;98930.91;;;13.16;80.77
80116;BME280;69423;47.608;19.366;2023-08-08T02:07:33;98934.19;;;13.19;81.22
80116;BME280;69423;47.608;19.366;2023-08-08T02:08:04;98937.50;;;13.21;80.32
80116;BME280;69423;47.608;19.366;2023-08-08T02:08:35;98935.06;;;13.19;80.89
80116;BME280;69423;47.608;19.366;2023-08-08T02:09:07;98929.25;;;13.15;81.28
80116;BME280;69423;47.608;19.366;2023-08-08T02:09:38;98940.41;;;13.19;80.47
80116;BME280;69423;47.608;19.366;2023-08-08T02:10:09;98943.72;;;13.21;80.62
80116;BME280;69423;47.608;19.366;2023-08-08T02:10:40;98943.47;;;13.16;81.11
80116;BME280;69423;47.608;19.366;2023-08-08T02:11:11;98940.16;;;13.14;80.81
80116;BME280;69423;47.608;19.366;2023-08-08T02:11:42;98946.97;;;13.16;80.85
80116;BME280;69423;47.608;19.366;2023-08-08T02:12:13;98944.09;;;13.18;81.08
80116;BME280;69423;47.608;19.366;2023-08-08T02:12:44;98944.50;;;13.15;80.41
80116;BME280;69423;47.608;19.366;2023-08-08T02:13:15;98949.44;;;13.11;81.08
80116;BME280;69423;47.608;19.366;2023-08-08T02:13:47;98945.31;;;13.15;80.88
80116;BME280;69423;47.608;19.366;2023-08-08T02:14:18;98942.44;;;13.10;80.89
80116;BME280;69423;47.608;19.366;2023-08-08T02:14:49;98940.38;;;13.12;81.08
80116;BME280;69423;47.608;19.366;2023-08-08T02:15:20;98949.84;;;13.08;81.20
80116;BME280;69423;47.608;19.366;2023-08-08T02:15:51;98941.19;;;13.06;80.80
80116;BME280;69423;47.608;19.366;2023-08-08T02:16:23;98947.53;;;13.05;81.03
80116;BME280;69423;47.608;19.366;2023-08-08T02:16:54;98956.84;;;13.09;80.69
80116;BME280;69423;47.608;19.366;2023-08-08T02:17:26;98949.00;;;13.08;80.94
80116;BME280;69423;47.608;19.366;2023-08-08T02:17:59;98955.59;;;13.12;81.04
80116;BME280;69423;47.608;19.366;2023-08-08T02:18:30;98955.19;;;13.08;81.42
80116;BME280;69423;47.608;19.366;2023-08-08T02:19:01;98958.69;;;13.09;81.43
80116;BME280;69423;47.608;19.366;2023-08-08T02:19:32;98954.56;;;13.06;80.73
80116;BME280;69423;47.608;19.366;2023-08-08T02:20:04;98943.63;;;13.08;80.90
80116;BME280;69423;47.608;19.366;2023-08-08T02:20:35;98948.16;;;13.07;80.87
80116;BME280;69423;47.608;19.366;2023-08-08T02:21:07;98946.94;;;13.10;80.92
80116;BME280;69423;47.608;19.366;2023-08-08T02:21:38;98956.00;;;13.09;80.99
80116;BME280;69423;47.608;19.366;2023-08-08T02:22:09;98952.28;;;13.10;81.67
80116;BME280;69423;47.608;19.366;2023-08-08T02:22:40;98947.72;;;13.04;81.06
80116;BME280;69423;47.608;19.366;2023-08-08T02:23:11;98940.31;;;12.99;81.55
80116;BME280;69423;47.608;19.366;2023-08-08T02:23:42;98949.59;;;13.03;81.57
80116;BME280;69423;47.608;19.366;2023-08-08T02:24:13;98948.59;;;13.04;81.94
80116;BME280;69423;47.608;19.366;2023-08-08T02:24:44;98944.41;;;12.95;81.40
80116;BME280;69423;47.608;19.366;2023-08-08T02:25:15;98951.44;;;12.96;81.95
80116;BME280;69423;47.608;19.366;2023-08-08T02:25:46;98947.72;;;12.97;82.04
80116;BME280;69423;47.608;19.366;2023-08-08T02:26:19;98943.59;;;12.94;81.59
80116;BME280;69423;47.608;19.366;2023-08-08T02:26:50;98950.56;;;12.95;82.15
80116;BME280;69423;47.608;19.366;2023-08-08T02:27:21;98949.38;;;12.98;82.04
80116;BME280;69423;47.608;19.366;2023-08-08T02:27:52;98945.66;;;12.99;81.43
80116;BME280;69423;47.608;19.366;2023-08-08T02:28:23;98950.63;;;13.02;82.01
80116;BME280;69423;47.608;19.366;2023-08-08T02:28:54;98947.72;;;12.97;81.01
80116;BME280;69423;47.608;19.366;2023-08-08T02:29:25;98952.88;;;12.99;81.12
80116;BME280;69423;47.608;19.366;2023-08-08T02:29:56;98951.44;;;13.03;80.88
80116;BME280;69423;47.608;19.366;2023-08-08T02:30:28;98946.91;;;13.03;81.16
80116;BME280;69423;47.608;19.366;2023-08-08T02:30:59;98947.31;;;13.00;81.62
80116;BME280;69423;47.608;19.366;2023-08-08T02:31:30;98953.50;;;13.01;81.07
80116;BME280;69423;47.608;19.366;2023-08-08T02:32:01;98956.19;;;13.01;81.19
80116;BME280;69423;47.608;19.366;2023-08-08T02:32:32;98947.72;;;12.97;81.15
80116;BME280;69423;47.608;19.366;2023-08-08T02:33:03;98959.47;;;12.96;81.38
80116;BME280;69423;47.608;19.366;2023-08-08T02:33:34;98949.38;;;12.98;80.77
80116;BME280;69423;47.608;19.366;2023-08-08T02:34:05;98952.06;;;12.98;81.35
80116;BME280;69423;47.608;19.366;2023-08-08T02:34:36;98953.50;;;13.01;81.43
80116;BME280;69423;47.608;19.366;2023-08-08T02:35:09;98957.00;;;13.01;81.56
80116;BME280;69423;47.608;19.366;2023-08-08T02:35:40;98951.00;;;12.99;81.44
80116;BME280;69423;47.608;19.366;2023-08-08T02:36:11;98954.72;;;12.98;81.05
80116;BME280;69423;47.608;19.366;2023-08-08T02:36:42;98957.78;;;12.95;81.36
80116;BME280;69423;47.608;19.366;2023-08-08T02:37:13;98956.56;;;12.98;81.98
80116;BME280;69423;47.608;19.366;2023-08-08T02:37:44;98961.72;;;12.99;81.86
80116;BME280;69423;47.608;19.366;2023-08-08T02:38:15;98960.09;;;12.98;81.42
80116;BME280;69423;47.608;19.366;2023-08-08T02:38:46;98963.13;;;12.95;81.43
80116;BME280;69423;47.608;19.366;2023-08-08T02:39:18;98960.28;;;12.96;81.17
80116;BME280;69423;47.608;19.366;2023-08-08T02:39:49;98959.47;;;12.96;81.76
80116;BME280;69423;47.608;19.366;2023-08-08T02:40:20;98961.91;;;12.98;81.02
80116;BME280;69423;47.608;19.366;2023-08-08T02:40:54;98962.94;;;12.96;81.76
80116;BME280;69423;47.608;19.366;2023-08-08T02:41:25;98974.03;;;12.93;81.90
80116;BME280;69423;47.608;19.366;2023-08-08T02:41:56;98971.34;;;12.93;81.52
80116;BME280;69423;47.608;19.366;2023-08-08T02:42:27;98968.06;;;12.91;81.29
80116;BME280;69423;47.608;19.366;2023-08-08T02:42:58;98973.00;;;12.88;82.09
80116;BME280;69423;47.608;19.366;2023-08-08T02:43:29;98959.63;;;12.88;81.74
80116;BME280;69423;47.608;19.366;2023-08-08T02:44:00;98965.97;;;12.87;81.49
80116;BME280;69423;47.608;19.366;2023-08-08T02:44:31;98966.41;;;12.90;81.87
80116;BME280;69423;47.608;19.366;2023-08-08T02:45:02;98965.59;;;12.90;82.21
80116;BME280;69423;47.608;19.366;2023-08-08T02:45:33;98975.84;;;12.86;81.33
80116;BME280;69423;47.608;19.366;2023-08-08T02:46:04;98967.41;;;12.83;81.80
80116;BME280;69423;47.608;19.366;2023-08-08T02:46:35;98962.44;;;12.80;82.45
80116;BME280;69423;47.608;19.366;2023-08-08T02:47:08;98968.44;;;12.82;81.69
80116;BME280;69423;47.608;19.366;2023-08-08T02:47:39;98970.06;;;12.83;82.27
80116;BME280;69423;47.608;19.366;2023-08-08T02:48:10;98966.75;;;12.81;82.09
80116;BME280;69423;47.608;19.366;2023-08-08T02:48:41;98963.47;;;12.79;82.37
80116;BME280;69423;47.608;19.366;2023-08-08T02:49:12;98964.25;;;12.72;82.22